sensor_id;sensor_type;location;lat;lon;timestamp;P1;durP1;ratioP1;P2;durP2;ratioP2
35835;SDS011;21955;50.580;7.228;2022-11-21T00:00:23;9.60;;;2.00;;
35835;SDS011;21955;50.580;7.228;2022-11-21T00:02:50;11.63;;;2.08;;
35835;SDS011;21955;50.580;7.228;2022-11-21T00:05:18;9.57;;;2.03;;
35835;SDS011;21955;50.580;7.228;2022-11-21T00:07:45;10.35;;;1.70;;
35835;SDS011;21955;50.580;7.228;2022-11-21T00:10:13;8.90;;;1.73;;
35835;SDS011;21955;50.580;7.228;2022-11-21T00:12:40;7.53;;;1.83;;
35835;SDS011;21955;50.580;7.228;2022-11-21T00:15:08;8.30;;;1.98;;
35835;SDS011;21955;50.580;7.228;2022-11-21T00:17:36;9.73;;;2.13;;
35835;SDS011;21955;50.580;7.228;2022-11-21T00:20:04;11.43;;;2.15;;
35835;SDS011;21955;50.580;7.228;2022-11-21T00:22:34;12.27;;;2.05;;
35835;SDS011;21955;50.580;7.228;2022-11-21T00:25:01;10.98;;;2.20;;
35835;SDS011;21955;50.580;7.228;2022-11-21T00:27:28;10.23;;;1.80;;
35835;SDS011;21955;50.580;7.228;2022-11-21T00:29:55;10.60;;;1.80;;
35835;SDS011;21955;50.580;7.228;2022-11-21T00:32:22;9.75;;;2.10;;
35835;SDS011;21955;50.580;7.228;2022-11-21T00:34:49;8.70;;;1.77;;
35835;SDS011;21955;50.580;7.228;2022-11-21T00:37:16;9.95;;;1.70;;
35835;SDS011;21955;50.580;7.228;2022-11-21T00:39:45;8.75;;;2.00;;
35835;SDS011;21955;50.580;7.228;2022-11-21T00:42:12;10.00;;;2.00;;
35835;SDS011;21955;50.580;7.228;2022-11-21T00:44:39;11.45;;;2.10;;
35835;SDS011;21955;50.580;7.228;2022-11-21T00:47:06;11.73;;;2.08;;
35835;SDS011;21955;50.580;7.228;2022-11-21T00:49:33;9.32;;;2.20;;
35835;SDS011;21955;50.580;7.228;2022-11-21T00:52:00;10.65;;;1.98;;
35835;SDS011;21955;50.580;7.228;2022-11-21T00:54:27;12.20;;;2.22;;
35835;SDS011;21955;50.580;7.228;2022-11-21T00:56:56;12.03;;;2.30;;
35835;SDS011;21955;50.580;7.228;2022-11-21T00:59:23;9.27;;;1.73;;
35835;SDS011;21955;50.580;7.228;2022-11-21T01:01:50;11.57;;;2.20;;
35835;SDS011;21955;50.580;7.228;2022-11-21T01:04:17;10.73;;;2.10;;
35835;SDS011;21955;50.580;7.228;2022-11-21T01:06:44;14.75;;;2.25;;
35835;SDS011;21955;50.580;7.228;2022-11-21T01:09:11;9.57;;;2.10;;
35835;SDS011;21955;50.580;7.228;2022-11-21T01:11:38;9.65;;;1.98;;
35835;SDS011;21955;50.580;7.228;2022-11-21T01:14:07;13.05;;;2.08;;
35835;SDS011;21955;50.580;7.228;2022-11-21T01:16:34;11.65;;;2.22;;
35835;SDS011;21955;50.580;7.228;2022-11-21T01:19:01;12.82;;;2.42;;
35835;SDS011;21955;50.580;7.228;2022-11-21T01:21:29;13.45;;;2.55;;
35835;SDS011;21955;50.580;7.228;2022-11-21T01:23:57;16.98;;;2.67;;
35835;SDS011;21955;50.580;7.228;2022-11-21T01:26:25;12.32;;;1.98;;
35835;SDS011;21955;50.580;7.228;2022-11-21T01:28:53;11.13;;;2.20;;
35835;SDS011;21955;50.580;7.228;2022-11-21T01:31:22;13.80;;;2.35;;
35835;SDS011;21955;50.580;7.228;2022-11-21T01:33:50;14.43;;;2.50;;
35835;SDS011;21955;50.580;7.228;2022-11-21T01:36:18;16.27;;;2.40;;
35835;SDS011;21955;50.580;7.228;2022-11-21T01:38:45;16.48;;;2.92;;
35835;SDS011;21955;50.580;7.228;2022-11-21T01:41:14;14.27;;;2.50;;
35835;SDS011;21955;50.580;7.228;2022-11-21T01:43:41;13.73;;;2.63;;
35835;SDS011;21955;50.580;7.228;2022-11-21T01:46:09;11.60;;;2.40;;
35835;SDS011;21955;50.580;7.228;2022-11-21T01:48:39;12.07;;;2.53;;
35835;SDS011;21955;50.580;7.228;2022-11-21T01:51:09;13.50;;;2.22;;
35835;SDS011;21955;50.580;7.228;2022-11-21T01:53:37;14.88;;;2.30;;
35835;SDS011;21955;50.580;7.228;2022-11-21T01:56:05;10.95;;;2.80;;
35835;SDS011;21955;50.580;7.228;2022-11-21T01:58:33;11.40;;;2.30;;
35835;SDS011;21955;50.580;7.228;2022-11-21T02:01:01;14.68;;;2.83;;
35835;SDS011;21955;50.580;7.228;2022-11-21T02:03:29;10.70;;;2.47;;
35835;SDS011;21955;50.580;7.228;2022-11-21T02:06:00;10.60;;;2.13;;
35835;SDS011;21955;50.580;7.228;2022-11-21T02:08:27;12.68;;;2.10;;
35835;SDS011;21955;50.580;7.228;2022-11-21T02:10:57;11.57;;;2.40;;
35835;SDS011;21955;50.580;7.228;2022-11-21T02:13:28;10.13;;;2.30;;
35835;SDS011;21955;50.580;7.228;2022-11-21T02:15:56;11.95;;;2.35;;
35835;SDS011;21955;50.580;7.228;2022-11-21T02:18:23;13.63;;;3.00;;
35835;SDS011;21955;50.580;7.228;2022-11-21T02:20:52;11.35;;;2.47;;
35835;SDS011;21955;50.580;7.228;2022-11-21T02:23:24;7.80;;;2.15;;
35835;SDS011;21955;50.580;7.228;2022-11-21T02:25:54;13.40;;;2.75;;
35835;SDS011;21955;50.580;7.228;2022-11-21T02:28:21;12.77;;;2.28;;
35835;SDS011;21955;50.580;7.228;2022-11-21T02:30:49;11.50;;;2.50;;
35835;SDS011;21955;50.580;7.228;2022-11-21T02:33:16;7.33;;;2.03;;
35835;SDS011;21955;50.580;7.228;2022-11-21T02:35:43;14.45;;;2.15;;
35835;SDS011;21955;50.580;7.228;2022-11-21T02:38:12;10.23;;;2.03;;
35835;SDS011;21955;50.580;7.228;2022-11-21T02:40:43;11.38;;;2.13;;
35835;SDS011;21955;50.580;7.228;2022-11-21T02:43:16;9.88;;;2.10;;
35835;SDS011;21955;50.580;7.228;2022-11-21T02:45:44;13.27;;;2.35;;
35835;SDS011;21955;50.580;7.228;2022-11-21T02:48:12;9.07;;;2.20;;
35835;SDS011;21955;50.580;7.228;2022-11-21T02:50:39;8.80;;;2.20;;
35835;SDS011;21955;50.580;7.228;2022-11-21T02:53:08;9.30;;;2.00;;
35835;SDS011;21955;50.580;7.228;2022-11-21T02:55:35;10.25;;;2.10;;
35835;SDS011;21955;50.580;7.228;2022-11-21T02:58:03;9.50;;;2.03;;
35835;SDS011;21955;50.580;7.228;2022-11-21T03:00:31;10.80;;;2.03;;
35835;SDS011;21955;50.580;7.228;2022-11-21T03:02:58;9.05;;;1.98;;
35835;SDS011;21955;50.580;7.228;2022-11-21T03:05:26;7.63;;;1.83;;
35835;SDS011;21955;50.580;7.228;2022-11-21T03:07:53;9.27;;;1.90;;
35835;SDS011;21955;50.580;7.228;2022-11-21T03:10:21;9.25;;;2.13;;
35835;SDS011;21955;50.580;7.228;2022-11-21T03:12:48;9.85;;;2.03;;
35835;SDS011;21955;50.580;7.228;2022-11-21T03:15:15;7.47;;;1.83;;
35835;SDS011;21955;50.580;7.228;2022-11-21T03:17:46;7.72;;;1.70;;
35835;SDS011;21955;50.580;7.228;2022-11-21T03:20:14;7.40;;;1.70;;
35835;SDS011;21955;50.580;7.228;2022-11-21T03:22:41;4.50;;;1.70;;
35835;SDS011;21955;50.580;7.228;2022-11-21T03:25:08;9.00;;;2.13;;
35835;SDS011;21955;50.580;7.228;2022-11-21T03:27:35;11.20;;;2.00;;
35835;SDS011;21955;50.580;7.228;2022-11-21T03:30:02;8.00;;;1.92;;
35835;SDS011;21955;50.580;7.228;2022-11-21T03:32:30;8.10;;;1.80;;
35835;SDS011;21955;50.580;7.228;2022-11-21T03:34:58;8.60;;;1.98;;
35835;SDS011;21955;50.580;7.228;2022-11-21T03:37:25;10.05;;;2.10;;
35835;SDS011;21955;50.580;7.228;2022-11-21T03:39:52;6.68;;;1.83;;
35835;SDS011;21955;50.580;7.228;2022-11-21T03:42:19;8.75;;;1.98;;
35835;SDS011;21955;50.580;7.228;2022-11-21T03:44:46;8.93;;;2.10;;
35835;SDS011;21955;50.580;7.228;2022-11-21T03:47:14;7.40;;;1.80;;
35835;SDS011;21955;50.580;7.228;2022-11-21T03:49:41;8.40;;;1.90;;
35835;SDS011;21955;50.580;7.228;2022-11-21T03:52:09;8.10;;;1.90;;
35835;SDS011;21955;50.580;7.228;2022-11-21T03:54:36;9.20;;;1.80;;
35835;SDS011;21955;50.580;7.228;2022-11-21T03:57:03;8.38;;;1.83;;
35835;SDS011;21955;50.580;7.228;2022-11-21T03:59:30;5.95;;;1.73;;
35835;SDS011;21955;50.580;7.228;2022-11-21T04:01:57;8.18;;;1.85;;
35835;SDS011;21955;50.580;7.228;2022-11-21T04:04:24;10.65;;;1.98;;
35835;SDS011;21955;50.580;7.228;2022-11-21T04:06:51;8.93;;;1.83;;
35835;SDS011;21955;50.580;7.228;2022-11-21T04:09:20;6.63;;;1.88;;
35835;SDS011;21955;50.580;7.228;2022-11-21T04:11:47;9.43;;;2.10;;
35835;SDS011;21955;50.580;7.228;2022-11-21T04:14:14;12.25;;;2.10;;
35835;SDS011;21955;50.580;7.228;2022-11-21T04:16:41;9.17;;;1.97;;
35835;SDS011;21955;50.580;7.228;2022-11-21T04:19:08;7.22;;;2.10;;
35835;SDS011;21955;50.580;7.228;2022-11-21T04:21:35;7.55;;;1.90;;
35835;SDS011;21955;50.580;7.228;2022-11-21T04:24:02;7.30;;;1.90;;
35835;SDS011;21955;50.580;7.228;2022-11-21T04:26:31;10.30;;;1.92;;
35835;SDS011;21955;50.580;7.228;2022-11-21T04:28:58;10.45;;;1.90;;
35835;SDS011;21955;50.580;7.228;2022-11-21T04:31:25;5.75;;;1.98;;
35835;SDS011;21955;50.580;7.228;2022-11-21T04:33:52;9.67;;;1.60;;
35835;SDS011;21955;50.580;7.228;2022-11-21T04:36:19;7.45;;;2.20;;
35835;SDS011;21955;50.580;7.228;2022-11-21T04:38:49;8.13;;;1.88;;
35835;SDS011;21955;50.580;7.228;2022-11-21T04:41:16;7.05;;;1.77;;
35835;SDS011;21955;50.580;7.228;2022-11-21T04:43:44;6.28;;;1.80;;
35835;SDS011;21955;50.580;7.228;2022-11-21T04:46:15;7.90;;;2.20;;
35835;SDS011;21955;50.580;7.228;2022-11-21T04:48:42;6.40;;;1.77;;
35835;SDS011;21955;50.580;7.228;2022-11-21T04:51:09;7.97;;;1.98;;
35835;SDS011;21955;50.580;7.228;2022-11-21T04:53:36;9.10;;;2.15;;
35835;SDS011;21955;50.580;7.228;2022-11-21T04:56:03;8.73;;;2.10;;
35835;SDS011;21955;50.580;7.228;2022-11-21T04:58:31;7.75;;;1.58;;
35835;SDS011;21955;50.580;7.228;2022-11-21T05:01:05;7.35;;;1.67;;
35835;SDS011;21955;50.580;7.228;2022-11-21T05:03:32;7.05;;;1.85;;
35835;SDS011;21955;50.580;7.228;2022-11-21T05:05:59;8.00;;;1.77;;
35835;SDS011;21955;50.580;7.228;2022-11-21T05:08:26;8.25;;;1.90;;
35835;SDS011;21955;50.580;7.228;2022-11-21T05:10:53;7.40;;;1.77;;
35835;SDS011;21955;50.580;7.228;2022-11-21T05:13:38;7.90;;;1.80;;
35835;SDS011;21955;50.580;7.228;2022-11-21T05:16:06;5.55;;;1.90;;
35835;SDS011;21955;50.580;7.228;2022-11-21T05:18:33;5.53;;;1.60;;
35835;SDS011;21955;50.580;7.228;2022-11-21T05:21:00;7.35;;;1.67;;
35835;SDS011;21955;50.580;7.228;2022-11-21T05:23:28;5.05;;;1.58;;
35835;SDS011;21955;50.580;7.228;2022-11-21T05:25:55;3.65;;;1.55;;
35835;SDS011;21955;50.580;7.228;2022-11-21T05:28:22;4.85;;;1.60;;
35835;SDS011;21955;50.580;7.228;2022-11-21T05:30:49;4.93;;;1.40;;
35835;SDS011;21955;50.580;7.228;2022-11-21T05:33:17;6.75;;;1.50;;
35835;SDS011;21955;50.580;7.228;2022-11-21T05:35:45;5.05;;;1.60;;
35835;SDS011;21955;50.580;7.228;2022-11-21T05:38:12;6.03;;;1.63;;
35835;SDS011;21955;50.580;7.228;2022-11-21T05:40:39;7.30;;;1.80;;
35835;SDS011;21955;50.580;7.228;2022-11-21T05:43:06;4.93;;;1.80;;
35835;SDS011;21955;50.580;7.228;2022-11-21T05:45:51;4.13;;;1.38;;
35835;SDS011;21955;50.580;7.228;2022-11-21T05:48:19;7.90;;;1.77;;
35835;SDS011;21955;50.580;7.228;2022-11-21T05:50:47;5.53;;;1.80;;
35835;SDS011;21955;50.580;7.228;2022-11-21T05:53:14;6.40;;;1.90;;
35835;SDS011;21955;50.580;7.228;2022-11-21T05:55:41;5.72;;;1.80;;
35835;SDS011;21955;50.580;7.228;2022-11-21T05:58:08;5.22;;;1.50;;
35835;SDS011;21955;50.580;7.228;2022-11-21T06:00:36;7.77;;;1.70;;
35835;SDS011;21955;50.580;7.228;2022-11-21T06:03:03;6.05;;;1.83;;
35835;SDS011;21955;50.580;7.228;2022-11-21T06:05:49;7.03;;;2.30;;
35835;SDS011;21955;50.580;7.228;2022-11-21T06:08:16;6.70;;;2.30;;
35835;SDS011;21955;50.580;7.228;2022-11-21T06:10:43;6.97;;;2.00;;
35835;SDS011;21955;50.580;7.228;2022-11-21T06:13:10;6.03;;;2.13;;
35835;SDS011;21955;50.580;7.228;2022-11-21T06:15:48;7.20;;;2.10;;
35835;SDS011;21955;50.580;7.228;2022-11-21T06:18:16;6.13;;;1.80;;
35835;SDS011;21955;50.580;7.228;2022-11-21T06:20:43;4.63;;;1.88;;
35835;SDS011;21955;50.580;7.228;2022-11-21T06:23:11;4.57;;;1.70;;
35835;SDS011;21955;50.580;7.228;2022-11-21T06:25:39;4.68;;;1.80;;
35835;SDS011;21955;50.580;7.228;2022-11-21T06:28:06;4.50;;;1.90;;
35835;SDS011;21955;50.580;7.228;2022-11-21T06:30:33;5.85;;;1.80;;
35835;SDS011;21955;50.580;7.228;2022-11-21T06:33:01;10.38;;;2.15;;
35835;SDS011;21955;50.580;7.228;2022-11-21T06:35:29;7.78;;;2.08;;
35835;SDS011;21955;50.580;7.228;2022-11-21T06:37:56;6.25;;;1.83;;
35835;SDS011;21955;50.580;7.228;2022-11-21T06:40:25;6.83;;;2.27;;
35835;SDS011;21955;50.580;7.228;2022-11-21T06:42:52;6.22;;;2.20;;
35835;SDS011;21955;50.580;7.228;2022-11-21T06:45:19;6.72;;;2.10;;
35835;SDS011;21955;50.580;7.228;2022-11-21T06:47:47;9.17;;;2.50;;
35835;SDS011;21955;50.580;7.228;2022-11-21T06:50:14;9.25;;;3.05;;
35835;SDS011;21955;50.580;7.228;2022-11-21T06:52:41;9.30;;;3.30;;
35835;SDS011;21955;50.580;7.228;2022-11-21T06:55:09;10.35;;;4.28;;
35835;SDS011;21955;50.580;7.228;2022-11-21T06:57:37;9.27;;;3.58;;
35835;SDS011;21955;50.580;7.228;2022-11-21T07:00:05;11.73;;;3.95;;
35835;SDS011;21955;50.580;7.228;2022-11-21T07:02:32;9.40;;;3.10;;
35835;SDS011;21955;50.580;7.228;2022-11-21T07:04:59;8.60;;;3.10;;
35835;SDS011;21955;50.580;7.228;2022-11-21T07:07:26;8.55;;;2.90;;
35835;SDS011;21955;50.580;7.228;2022-11-21T07:09:53;11.52;;;3.13;;
35835;SDS011;21955;50.580;7.228;2022-11-21T07:12:20;10.60;;;3.00;;
35835;SDS011;21955;50.580;7.228;2022-11-21T07:15:07;8.10;;;2.47;;
35835;SDS011;21955;50.580;7.228;2022-11-21T07:17:35;7.65;;;2.60;;
35835;SDS011;21955;50.580;7.228;2022-11-21T07:20:02;6.38;;;2.10;;
35835;SDS011;21955;50.580;7.228;2022-11-21T07:22:30;6.85;;;2.03;;
35835;SDS011;21955;50.580;7.228;2022-11-21T07:24:57;7.43;;;2.05;;
35835;SDS011;21955;50.580;7.228;2022-11-21T07:27:24;5.35;;;2.00;;
35835;SDS011;21955;50.580;7.228;2022-11-21T07:29:51;7.40;;;2.50;;
35835;SDS011;21955;50.580;7.228;2022-11-21T07:32:22;5.43;;;2.33;;
35835;SDS011;21955;50.580;7.228;2022-11-21T07:34:50;6.47;;;2.10;;
35835;SDS011;21955;50.580;7.228;2022-11-21T07:37:17;5.72;;;1.90;;
35835;SDS011;21955;50.580;7.228;2022-11-21T07:39:44;6.85;;;2.00;;
35835;SDS011;21955;50.580;7.228;2022-11-21T07:42:11;5.05;;;2.00;;
35835;SDS011;21955;50.580;7.228;2022-11-21T07:44:38;4.80;;;2.17;;
35835;SDS011;21955;50.580;7.228;2022-11-21T07:47:05;8.77;;;2.27;;
35835;SDS011;21955;50.580;7.228;2022-11-21T07:49:34;6.35;;;2.22;;
35835;SDS011;21955;50.580;7.228;2022-11-21T07:52:01;5.38;;;2.20;;
35835;SDS011;21955;50.580;7.228;2022-11-21T07:54:28;6.07;;;2.30;;
35835;SDS011;21955;50.580;7.228;2022-11-21T07:56:55;7.43;;;2.60;;
35835;SDS011;21955;50.580;7.228;2022-11-21T07:59:22;6.78;;;2.70;;
35835;SDS011;21955;50.580;7.228;2022-11-21T08:01:49;10.07;;;2.85;;
35835;SDS011;21955;50.580;7.228;2022-11-21T08:04:17;9.82;;;3.00;;
35835;SDS011;21955;50.580;7.228;2022-11-21T08:06:46;7.57;;;2.90;;
35835;SDS011;21955;50.580;7.228;2022-11-21T08:09:13;6.63;;;3.22;;
35835;SDS011;21955;50.580;7.228;2022-11-21T08:11:40;12.23;;;3.83;;
35835;SDS011;21955;50.580;7.228;2022-11-21T08:14:07;8.45;;;3.40;;
35835;SDS011;21955;50.580;7.228;2022-11-21T08:16:34;10.23;;;3.65;;
35835;SDS011;21955;50.580;7.228;2022-11-21T08:19:01;9.77;;;3.85;;
35835;SDS011;21955;50.580;7.228;2022-11-21T08:21:29;9.52;;;3.38;;
35835;SDS011;21955;50.580;7.228;2022-11-21T08:23:58;9.57;;;3.03;;
35835;SDS011;21955;50.580;7.228;2022-11-21T08:26:25;6.60;;;2.70;;
35835;SDS011;21955;50.580;7.228;2022-11-21T08:28:52;5.95;;;2.70;;
35835;SDS011;21955;50.580;7.228;2022-11-21T08:31:19;7.18;;;3.20;;
35835;SDS011;21955;50.580;7.228;2022-11-21T08:33:46;7.80;;;3.00;;
35835;SDS011;21955;50.580;7.228;2022-11-21T08:36:14;8.05;;;2.90;;
35835;SDS011;21955;50.580;7.228;2022-11-21T08:38:41;7.03;;;2.60;;
35835;SDS011;21955;50.580;7.228;2022-11-21T08:41:11;6.82;;;2.53;;
35835;SDS011;21955;50.580;7.228;2022-11-21T08:43:55;6.83;;;2.70;;
35835;SDS011;21955;50.580;7.228;2022-11-21T08:46:22;5.68;;;2.72;;
35835;SDS011;21955;50.580;7.228;2022-11-21T08:48:52;6.05;;;2.60;;
35835;SDS011;21955;50.580;7.228;2022-11-21T08:51:19;8.20;;;2.72;;
35835;SDS011;21955;50.580;7.228;2022-11-21T08:53:46;7.18;;;2.97;;
35835;SDS011;21955;50.580;7.228;2022-11-21T08:56:15;6.28;;;2.45;;
35835;SDS011;21955;50.580;7.228;2022-11-21T08:58:42;6.95;;;2.50;;
35835;SDS011;21955;50.580;7.228;2022-11-21T09:01:09;8.20;;;2.60;;
35835;SDS011;21955;50.580;7.228;2022-11-21T09:03:36;5.63;;;2.33;;
35835;SDS011;21955;50.580;7.228;2022-11-21T09:06:03;6.60;;;2.75;;
35835;SDS011;21955;50.580;7.228;2022-11-21T09:08:31;6.95;;;2.53;;
35835;SDS011;21955;50.580;7.228;2022-11-21T09:11:01;9.33;;;2.90;;
35835;SDS011;21955;50.580;7.228;2022-11-21T09:13:32;8.38;;;3.42;;
35835;SDS011;21955;50.580;7.228;2022-11-21T09:15:59;9.70;;;3.40;;
35835;SDS011;21955;50.580;7.228;2022-11-21T09:18:44;10.32;;;3.63;;
35835;SDS011;21955;50.580;7.228;2022-11-21T09:21:12;8.45;;;3.38;;
35835;SDS011;21955;50.580;7.228;2022-11-21T09:23:41;8.32;;;3.33;;
35835;SDS011;21955;50.580;7.228;2022-11-21T09:26:08;9.77;;;3.42;;
35835;SDS011;21955;50.580;7.228;2022-11-21T09:28:36;9.88;;;3.75;;
35835;SDS011;21955;50.580;7.228;2022-11-21T09:31:05;8.23;;;3.97;;
35835;SDS011;21955;50.580;7.228;2022-11-21T09:33:32;8.55;;;3.03;;
35835;SDS011;21955;50.580;7.228;2022-11-21T09:36:00;10.18;;;2.80;;
35835;SDS011;21955;50.580;7.228;2022-11-21T09:38:27;6.97;;;2.75;;
35835;SDS011;21955;50.580;7.228;2022-11-21T09:40:57;6.50;;;2.75;;
35835;SDS011;21955;50.580;7.228;2022-11-21T09:43:50;7.10;;;2.50;;
35835;SDS011;21955;50.580;7.228;2022-11-21T09:46:20;4.43;;;2.08;;
35835;SDS011;21955;50.580;7.228;2022-11-21T09:48:52;3.17;;;1.83;;
35835;SDS011;21955;50.580;7.228;2022-11-21T09:51:22;6.00;;;2.00;;
35835;SDS011;21955;50.580;7.228;2022-11-21T09:53:52;3.00;;;1.48;;
35835;SDS011;21955;50.580;7.228;2022-11-21T09:56:21;4.50;;;1.90;;
35835;SDS011;21955;50.580;7.228;2022-11-21T09:58:54;2.75;;;1.50;;
35835;SDS011;21955;50.580;7.228;2022-11-21T10:01:24;7.70;;;1.92;;
35835;SDS011;21955;50.580;7.228;2022-11-21T10:03:52;5.90;;;1.80;;
35835;SDS011;21955;50.580;7.228;2022-11-21T10:06:20;4.05;;;1.70;;
35835;SDS011;21955;50.580;7.228;2022-11-21T10:08:51;5.47;;;1.60;;
35835;SDS011;21955;50.580;7.228;2022-11-21T10:11:23;4.30;;;1.80;;
35835;SDS011;21955;50.580;7.228;2022-11-21T10:13:56;4.72;;;1.42;;
35835;SDS011;21955;50.580;7.228;2022-11-21T10:16:25;3.95;;;1.48;;
35835;SDS011;21955;50.580;7.228;2022-11-21T10:19:16;3.13;;;1.20;;
35835;SDS011;21955;50.580;7.228;2022-11-21T10:21:51;2.13;;;1.10;;
35835;SDS011;21955;50.580;7.228;2022-11-21T10:24:30;1.90;;;0.90;;
35835;SDS011;21955;50.580;7.228;2022-11-21T10:27:03;2.33;;;0.85;;
35835;SDS011;21955;50.580;7.228;2022-11-21T10:29:35;2.05;;;0.80;;
35835;SDS011;21955;50.580;7.228;2022-11-21T10:32:18;3.92;;;0.90;;
35835;SDS011;21955;50.580;7.228;2022-11-21T10:34:49;3.03;;;0.82;;
35835;SDS011;21955;50.580;7.228;2022-11-21T10:37:22;2.17;;;0.90;;
35835;SDS011;21955;50.580;7.228;2022-11-21T10:39:53;1.73;;;0.73;;
35835;SDS011;21955;50.580;7.228;2022-11-21T10:42:25;2.50;;;1.10;;
35835;SDS011;21955;50.580;7.228;2022-11-21T10:44:55;3.58;;;0.90;;
35835;SDS011;21955;50.580;7.228;2022-11-21T10:47:43;4.60;;;1.17;;
35835;SDS011;21955;50.580;7.228;2022-11-21T10:50:14;2.72;;;0.93;;
35835;SDS011;21955;50.580;7.228;2022-11-21T10:52:46;1.70;;;0.82;;
35835;SDS011;21955;50.580;7.228;2022-11-21T10:55:13;1.85;;;0.80;;
35835;SDS011;21955;50.580;7.228;2022-11-21T10:57:44;1.50;;;0.80;;
35835;SDS011;21955;50.580;7.228;2022-11-21T11:00:15;2.72;;;1.00;;
35835;SDS011;21955;50.580;7.228;2022-11-21T11:02:56;3.65;;;1.90;;
35835;SDS011;21955;50.580;7.228;2022-11-21T11:05:26;3.85;;;1.50;;
35835;SDS011;21955;50.580;7.228;2022-11-21T11:08:01;4.88;;;1.15;;
35835;SDS011;21955;50.580;7.228;2022-11-21T11:10:30;4.35;;;0.95;;
35835;SDS011;21955;50.580;7.228;2022-11-21T11:12:57;2.80;;;0.85;;
35835;SDS011;21955;50.580;7.228;2022-11-21T11:15:54;2.60;;;0.80;;
35835;SDS011;21955;50.580;7.228;2022-11-21T11:18:22;3.30;;;1.00;;
35835;SDS011;21955;50.580;7.228;2022-11-21T11:20:50;1.95;;;0.88;;
35835;SDS011;21955;50.580;7.228;2022-11-21T11:23:23;3.47;;;1.10;;
35835;SDS011;21955;50.580;7.228;2022-11-21T11:25:50;5.93;;;1.02;;
35835;SDS011;21955;50.580;7.228;2022-11-21T11:28:18;6.60;;;1.80;;
35835;SDS011;21955;50.580;7.228;2022-11-21T11:30:48;3.47;;;1.00;;
35835;SDS011;21955;50.580;7.228;2022-11-21T11:33:34;2.30;;;0.75;;
35835;SDS011;21955;50.580;7.228;2022-11-21T11:36:05;1.60;;;0.70;;
35835;SDS011;21955;50.580;7.228;2022-11-21T11:38:35;2.90;;;0.90;;
35835;SDS011;21955;50.580;7.228;2022-11-21T11:41:04;2.90;;;0.90;;
35835;SDS011;21955;50.580;7.228;2022-11-21T11:43:37;3.28;;;0.70;;
35835;SDS011;21955;50.580;7.228;2022-11-21T11:46:28;2.47;;;0.77;;
35835;SDS011;21955;50.580;7.228;2022-11-21T11:49:18;3.15;;;0.80;;
35835;SDS011;21955;50.580;7.228;2022-11-21T11:51:47;5.03;;;0.95;;
35835;SDS011;21955;50.580;7.228;2022-11-21T11:54:17;2.20;;;0.70;;
35835;SDS011;21955;50.580;7.228;2022-11-21T11:56:45;3.53;;;0.98;;
35835;SDS011;21955;50.580;7.228;2022-11-21T11:59:13;4.97;;;1.00;;
35835;SDS011;21955;50.580;7.228;2022-11-21T12:01:44;3.55;;;0.80;;
35835;SDS011;21955;50.580;7.228;2022-11-21T12:04:14;4.25;;;0.90;;
35835;SDS011;21955;50.580;7.228;2022-11-21T12:06:44;2.60;;;0.90;;
35835;SDS011;21955;50.580;7.228;2022-11-21T12:09:14;3.15;;;0.90;;
35835;SDS011;21955;50.580;7.228;2022-11-21T12:11:48;2.55;;;1.00;;
35835;SDS011;21955;50.580;7.228;2022-11-21T12:14:35;5.13;;;1.42;;
35835;SDS011;21955;50.580;7.228;2022-11-21T12:17:18;4.88;;;1.15;;
35835;SDS011;21955;50.580;7.228;2022-11-21T12:19:47;3.33;;;0.80;;
35835;SDS011;21955;50.580;7.228;2022-11-21T12:22:17;3.08;;;0.80;;
35835;SDS011;21955;50.580;7.228;2022-11-21T12:24:44;3.63;;;0.80;;
35835;SDS011;21955;50.580;7.228;2022-11-21T12:27:17;3.28;;;0.80;;
35835;SDS011;21955;50.580;7.228;2022-11-21T12:29:49;3.00;;;0.95;;
35835;SDS011;21955;50.580;7.228;2022-11-21T12:32:25;2.30;;;0.73;;
35835;SDS011;21955;50.580;7.228;2022-11-21T12:35:04;2.55;;;0.70;;
35835;SDS011;21955;50.580;7.228;2022-11-21T12:37:38;3.65;;;0.88;;
35835;SDS011;21955;50.580;7.228;2022-11-21T12:40:15;3.08;;;0.93;;
35835;SDS011;21955;50.580;7.228;2022-11-21T12:42:53;3.38;;;0.90;;
35835;SDS011;21955;50.580;7.228;2022-11-21T12:45:30;2.43;;;0.80;;
35835;SDS011;21955;50.580;7.228;2022-11-21T12:48:08;3.35;;;1.08;;
35835;SDS011;21955;50.580;7.228;2022-11-21T12:50:58;3.60;;;1.20;;
35835;SDS011;21955;50.580;7.228;2022-11-21T12:53:47;6.20;;;1.10;;
35835;SDS011;21955;50.580;7.228;2022-11-21T12:56:37;3.88;;;0.90;;
35835;SDS011;21955;50.580;7.228;2022-11-21T12:59:08;5.38;;;0.93;;
35835;SDS011;21955;50.580;7.228;2022-11-21T13:01:41;3.10;;;0.90;;
35835;SDS011;21955;50.580;7.228;2022-11-21T13:04:10;3.20;;;0.95;;
35835;SDS011;21955;50.580;7.228;2022-11-21T13:06:40;5.77;;;1.27;;
35835;SDS011;21955;50.580;7.228;2022-11-21T13:09:12;4.82;;;1.20;;
35835;SDS011;21955;50.580;7.228;2022-11-21T13:11:43;3.92;;;1.20;;
35835;SDS011;21955;50.580;7.228;2022-11-21T13:14:25;4.63;;;1.17;;
35835;SDS011;21955;50.580;7.228;2022-11-21T13:16:55;4.47;;;1.05;;
35835;SDS011;21955;50.580;7.228;2022-11-21T13:19:25;4.95;;;1.10;;
35835;SDS011;21955;50.580;7.228;2022-11-21T13:21:55;3.80;;;1.00;;
35835;SDS011;21955;50.580;7.228;2022-11-21T13:27:10;3.42;;;1.00;;
35835;SDS011;21955;50.580;7.228;2022-11-21T13:32:36;4.50;;;1.20;;
35835;SDS011;21955;50.580;7.228;2022-11-21T13:35:10;3.95;;;1.10;;
35835;SDS011;21955;50.580;7.228;2022-11-21T13:37:58;5.82;;;1.27;;
35835;SDS011;21955;50.580;7.228;2022-11-21T13:40:35;4.25;;;1.15;;
35835;SDS011;21955;50.580;7.228;2022-11-21T13:43:19;5.30;;;1.33;;
35835;SDS011;21955;50.580;7.228;2022-11-21T13:45:48;5.95;;;1.30;;
35835;SDS011;21955;50.580;7.228;2022-11-21T13:48:39;3.22;;;1.30;;
35835;SDS011;21955;50.580;7.228;2022-11-21T13:51:12;3.28;;;1.40;;
35835;SDS011;21955;50.580;7.228;2022-11-21T13:53:50;6.00;;;1.42;;
35835;SDS011;21955;50.580;7.228;2022-11-21T13:56:23;5.65;;;1.30;;
35835;SDS011;21955;50.580;7.228;2022-11-21T13:58:55;4.55;;;1.27;;
35835;SDS011;21955;50.580;7.228;2022-11-21T14:01:34;6.05;;;1.45;;
35835;SDS011;21955;50.580;7.228;2022-11-21T14:04:11;5.17;;;1.30;;
35835;SDS011;21955;50.580;7.228;2022-11-21T14:06:42;5.10;;;1.30;;
35835;SDS011;21955;50.580;7.228;2022-11-21T14:09:18;7.85;;;1.50;;
35835;SDS011;21955;50.580;7.228;2022-11-21T14:11:46;5.72;;;1.40;;
35835;SDS011;21955;50.580;7.228;2022-11-21T14:14:24;4.95;;;1.40;;
35835;SDS011;21955;50.580;7.228;2022-11-21T14:16:52;7.18;;;1.70;;
35835;SDS011;21955;50.580;7.228;2022-11-21T14:19:22;7.00;;;1.80;;
35835;SDS011;21955;50.580;7.228;2022-11-21T14:21:50;5.75;;;1.85;;
35835;SDS011;21955;50.580;7.228;2022-11-21T14:24:19;7.53;;;1.65;;
35835;SDS011;21955;50.580;7.228;2022-11-21T14:26:47;11.18;;;1.77;;
35835;SDS011;21955;50.580;7.228;2022-11-21T14:29:15;6.50;;;1.55;;
35835;SDS011;21955;50.580;7.228;2022-11-21T14:31:45;7.65;;;1.70;;
35835;SDS011;21955;50.580;7.228;2022-11-21T14:34:12;9.52;;;2.00;;
35835;SDS011;21955;50.580;7.228;2022-11-21T14:36:49;6.00;;;1.77;;
35835;SDS011;21955;50.580;7.228;2022-11-21T14:39:16;8.30;;;1.80;;
35835;SDS011;21955;50.580;7.228;2022-11-21T14:41:44;12.48;;;1.88;;
35835;SDS011;21955;50.580;7.228;2022-11-21T14:44:15;5.20;;;1.50;;
35835;SDS011;21955;50.580;7.228;2022-11-21T14:46:43;11.40;;;1.75;;
35835;SDS011;21955;50.580;7.228;2022-11-21T14:49:19;9.52;;;1.67;;
35835;SDS011;21955;50.580;7.228;2022-11-21T14:51:47;8.30;;;1.80;;
35835;SDS011;21955;50.580;7.228;2022-11-21T14:54:16;5.95;;;1.90;;
35835;SDS011;21955;50.580;7.228;2022-11-21T14:56:45;7.90;;;1.80;;
35835;SDS011;21955;50.580;7.228;2022-11-21T14:59:14;8.35;;;1.90;;
35835;SDS011;21955;50.580;7.228;2022-11-21T15:01:53;11.55;;;2.00;;
35835;SDS011;21955;50.580;7.228;2022-11-21T15:04:25;6.05;;;1.85;;
35835;SDS011;21955;50.580;7.228;2022-11-21T15:06:52;7.97;;;1.90;;